sensor_id;sensor_type;location;lat;lon;timestamp;temperature;humidity
12568;DHT22;6349;50.904;6.136;2022-11-14T00:00:01;7.20;99.90
12568;DHT22;6349;50.904;6.136;2022-11-14T00:02:02;7.20;99.90
12568;DHT22;6349;50.904;6.136;2022-11-14T00:04:03;7.20;99.90
12568;DHT22;6349;50.904;6.136;2022-11-14T00:06:06;7.20;99.90
12568;DHT22;6349;50.904;6.136;2022-11-14T00:08:15;7.20;99.90
12568;DHT22;6349;50.904;6.136;2022-11-14T00:10:16;7.20;99.90
12568;DHT22;6349;50.904;6.136;2022-11-14T00:12:17;7.10;99.90
12568;DHT22;6349;50.904;6.136;2022-11-14T00:14:17;7.20;99.90
12568;DHT22;6349;50.904;6.136;2022-11-14T00:16:18;7.10;99.90
12568;DHT22;6349;50.904;6.136;2022-11-14T00:18:18;7.10;99.90
12568;DHT22;6349;50.904;6.136;2022-11-14T00:20:19;7.00;99.90
12568;DHT22;6349;50.904;6.136;2022-11-14T00:22:19;7.00;99.90
12568;DHT22;6349;50.904;6.136;2022-11-14T00:24:20;6.90;99.90
12568;DHT22;6349;50.904;6.136;2022-11-14T00:26:21;6.90;99.90
12568;DHT22;6349;50.904;6.136;2022-11-14T00:28:21;6.90;99.90
12568;DHT22;6349;50.904;6.136;2022-11-14T00:30:22;6.80;99.90
12568;DHT22;6349;50.904;6.136;2022-11-14T00:32:22;6.80;99.90
12568;DHT22;6349;50.904;6.136;2022-11-14T00:34:23;6.80;99.90
12568;DHT22;6349;50.904;6.136;2022-11-14T00:36:23;6.70;99.90
12568;DHT22;6349;50.904;6.136;2022-11-14T00:38:24;6.70;99.90
12568;DHT22;6349;50.904;6.136;2022-11-14T00:40:25;6.60;99.90
12568;DHT22;6349;50.904;6.136;2022-11-14T00:42:25;6.60;99.90
12568;DHT22;6349;50.904;6.136;2022-11-14T00:44:26;6.60;99.90
12568;DHT22;6349;50.904;6.136;2022-11-14T00:46:26;6.60;99.90
12568;DHT22;6349;50.904;6.136;2022-11-14T00:48:27;6.60;99.90
12568;DHT22;6349;50.904;6.136;2022-11-14T00:50:28;6.50;99.90
12568;DHT22;6349;50.904;6.136;2022-11-14T00:52:28;6.60;99.90
12568;DHT22;6349;50.904;6.136;2022-11-14T00:54:29;6.60;99.90
12568;DHT22;6349;50.904;6.136;2022-11-14T00:56:29;6.60;99.90
12568;DHT22;6349;50.904;6.136;2022-11-14T00:58:30;6.50;99.90
12568;DHT22;6349;50.904;6.136;2022-11-14T01:00:31;6.50;99.90
12568;DHT22;6349;50.904;6.136;2022-11-14T01:02:31;6.50;99.90
12568;DHT22;6349;50.904;6.136;2022-11-14T01:04:32;6.40;99.90
12568;DHT22;6349;50.904;6.136;2022-11-14T01:06:33;6.30;99.90
12568;DHT22;6349;50.904;6.136;2022-11-14T01:08:34;6.30;99.90
12568;DHT22;6349;50.904;6.136;2022-11-14T01:10:38;6.30;99.90
12568;DHT22;6349;50.904;6.136;2022-11-14T01:12:39;6.20;99.90
12568;DHT22;6349;50.904;6.136;2022-11-14T01:14:40;6.30;99.90
12568;DHT22;6349;50.904;6.136;2022-11-14T01:16:40;6.30;99.90
12568;DHT22;6349;50.904;6.136;2022-11-14T01:18:41;6.30;99.90
12568;DHT22;6349;50.904;6.136;2022-11-14T01:20:43;6.30;99.90
12568;DHT22;6349;50.904;6.136;2022-11-14T01:22:44;6.20;99.90
12568;DHT22;6349;50.904;6.136;2022-11-14T01:24:44;6.20;99.90
12568;DHT22;6349;50.904;6.136;2022-11-14T01:26:45;6.20;99.90
12568;DHT22;6349;50.904;6.136;2022-11-14T01:28:46;6.20;99.90
12568;DHT22;6349;50.904;6.136;2022-11-14T01:30:46;6.20;99.90
12568;DHT22;6349;50.904;6.136;2022-11-14T01:32:47;6.20;99.90
12568;DHT22;6349;50.904;6.136;2022-11-14T01:34:47;6.20;99.90
12568;DHT22;6349;50.904;6.136;2022-11-14T01:36:48;6.20;99.90
12568;DHT22;6349;50.904;6.136;2022-11-14T01:38:52;6.20;99.90
12568;DHT22;6349;50.904;6.136;2022-11-14T01:40:53;6.20;99.90
12568;DHT22;6349;50.904;6.136;2022-11-14T01:45:56;6.20;99.90
12568;DHT22;6349;50.904;6.136;2022-11-14T01:47:57;6.20;99.90
12568;DHT22;6349;50.904;6.136;2022-11-14T01:50:00;6.20;99.90
12568;DHT22;6349;50.904;6.136;2022-11-14T01:52:06;6.10;99.90
12568;DHT22;6349;50.904;6.136;2022-11-14T01:54:17;6.10;99.90
12568;DHT22;6349;50.904;6.136;2022-11-14T01:56:27;6.00;99.90
12568;DHT22;6349;50.904;6.136;2022-11-14T01:58:29;6.00;99.90
12568;DHT22;6349;50.904;6.136;2022-11-14T02:00:31;5.90;99.90
12568;DHT22;6349;50.904;6.136;2022-11-14T02:02:31;5.90;99.90
12568;DHT22;6349;50.904;6.136;2022-11-14T02:04:36;5.90;99.90
12568;DHT22;6349;50.904;6.136;2022-11-14T02:06:39;5.90;99.90
12568;DHT22;6349;50.904;6.136;2022-11-14T02:08:40;5.80;99.90
12568;DHT22;6349;50.904;6.136;2022-11-14T02:10:42;5.80;99.90
12568;DHT22;6349;50.904;6.136;2022-11-14T02:12:43;5.70;99.90
12568;DHT22;6349;50.904;6.136;2022-11-14T02:14:47;5.80;99.90
12568;DHT22;6349;50.904;6.136;2022-11-14T02:16:49;5.80;99.90
12568;DHT22;6349;50.904;6.136;2022-11-14T02:18:49;5.80;99.90
12568;DHT22;6349;50.904;6.136;2022-11-14T02:20:50;5.70;99.90
12568;DHT22;6349;50.904;6.136;2022-11-14T02:22:50;5.70;99.90
12568;DHT22;6349;50.904;6.136;2022-11-14T02:24:51;5.70;99.90
12568;DHT22;6349;50.904;6.136;2022-11-14T02:26:51;5.70;99.90
12568;DHT22;6349;50.904;6.136;2022-11-14T02:28:52;5.70;99.90
12568;DHT22;6349;50.904;6.136;2022-11-14T02:30:54;5.70;99.90
12568;DHT22;6349;50.904;6.136;2022-11-14T02:32:54;5.60;99.90
12568;DHT22;6349;50.904;6.136;2022-11-14T02:34:55;5.60;99.90
12568;DHT22;6349;50.904;6.136;2022-11-14T02:36:56;5.70;99.90
12568;DHT22;6349;50.904;6.136;2022-11-14T02:38:56;5.60;99.90
12568;DHT22;6349;50.904;6.136;2022-11-14T02:40:59;5.70;99.90
12568;DHT22;6349;50.904;6.136;2022-11-14T02:42:59;5.60;99.90
12568;DHT22;6349;50.904;6.136;2022-11-14T02:45:00;5.60;99.90
12568;DHT22;6349;50.904;6.136;2022-11-14T02:47:00;5.60;99.90
12568;DHT22;6349;50.904;6.136;2022-11-14T02:49:01;5.80;99.90
12568;DHT22;6349;50.904;6.136;2022-11-14T02:51:02;5.80;99.90
12568;DHT22;6349;50.904;6.136;2022-11-14T02:53:03;5.80;99.90
12568;DHT22;6349;50.904;6.136;2022-11-14T02:55:04;6.00;99.90
12568;DHT22;6349;50.904;6.136;2022-11-14T02:57:05;6.00;99.90
12568;DHT22;6349;50.904;6.136;2022-11-14T02:59:05;6.00;99.90
12568;DHT22;6349;50.904;6.136;2022-11-14T03:01:06;6.00;99.90
12568;DHT22;6349;50.904;6.136;2022-11-14T03:03:06;6.00;99.90
12568;DHT22;6349;50.904;6.136;2022-11-14T03:05:07;5.90;99.90
12568;DHT22;6349;50.904;6.136;2022-11-14T03:07:08;5.90;99.90
12568;DHT22;6349;50.904;6.136;2022-11-14T03:09:08;5.80;99.90
12568;DHT22;6349;50.904;6.136;2022-11-14T03:11:09;5.80;99.90
12568;DHT22;6349;50.904;6.136;2022-11-14T03:13:10;5.70;99.90
12568;DHT22;6349;50.904;6.136;2022-11-14T03:15:11;5.70;99.90
12568;DHT22;6349;50.904;6.136;2022-11-14T03:17:12;5.60;99.90
12568;DHT22;6349;50.904;6.136;2022-11-14T03:19:12;5.60;99.90
12568;DHT22;6349;50.904;6.136;2022-11-14T03:21:16;5.50;99.90
12568;DHT22;6349;50.904;6.136;2022-11-14T03:23:17;5.50;99.90
12568;DHT22;6349;50.904;6.136;2022-11-14T03:25:17;5.40;99.90
12568;DHT22;6349;50.904;6.136;2022-11-14T03:27:18;5.30;99.90
12568;DHT22;6349;50.904;6.136;2022-11-14T03:29:20;5.30;99.90
12568;DHT22;6349;50.904;6.136;2022-11-14T03:31:20;5.20;99.90
12568;DHT22;6349;50.904;6.136;2022-11-14T03:33:21;5.20;99.90
12568;DHT22;6349;50.904;6.136;2022-11-14T03:35:22;5.20;99.90
12568;DHT22;6349;50.904;6.136;2022-11-14T03:37:23;5.10;99.90
12568;DHT22;6349;50.904;6.136;2022-11-14T03:39:23;5.10;99.90
12568;DHT22;6349;50.904;6.136;2022-11-14T03:41:24;5.00;99.90
12568;DHT22;6349;50.904;6.136;2022-11-14T03:43:25;5.00;99.90
12568;DHT22;6349;50.904;6.136;2022-11-14T03:45:29;5.00;99.90
12568;DHT22;6349;50.904;6.136;2022-11-14T03:47:29;5.00;99.90
12568;DHT22;6349;50.904;6.136;2022-11-14T03:49:30;5.00;99.90
12568;DHT22;6349;50.904;6.136;2022-11-14T03:51:30;5.00;99.90
12568;DHT22;6349;50.904;6.136;2022-11-14T03:53:31;5.00;99.90
12568;DHT22;6349;50.904;6.136;2022-11-14T03:55:32;5.00;99.90
12568;DHT22;6349;50.904;6.136;2022-11-14T03:57:33;5.00;99.90
12568;DHT22;6349;50.904;6.136;2022-11-14T03:59:33;5.00;99.90
12568;DHT22;6349;50.904;6.136;2022-11-14T04:01:34;5.00;99.90
12568;DHT22;6349;50.904;6.136;2022-11-14T04:03:34;5.00;99.90
12568;DHT22;6349;50.904;6.136;2022-11-14T04:05:35;4.90;99.90
12568;DHT22;6349;50.904;6.136;2022-11-14T04:07:36;4.90;99.90
12568;DHT22;6349;50.904;6.136;2022-11-14T04:09:36;4.90;99.90
12568;DHT22;6349;50.904;6.136;2022-11-14T04:11:37;4.80;99.90
12568;DHT22;6349;50.904;6.136;2022-11-14T04:13:38;4.80;99.90
12568;DHT22;6349;50.904;6.136;2022-11-14T04:15:38;4.80;99.90
12568;DHT22;6349;50.904;6.136;2022-11-14T04:17:39;4.80;99.90
12568;DHT22;6349;50.904;6.136;2022-11-14T04:19:39;4.80;99.90
12568;DHT22;6349;50.904;6.136;2022-11-14T04:21:40;4.80;99.90
12568;DHT22;6349;50.904;6.136;2022-11-14T04:23:41;4.80;99.90
12568;DHT22;6349;50.904;6.136;2022-11-14T04:25:43;4.80;99.90
12568;DHT22;6349;50.904;6.136;2022-11-14T04:27:44;4.80;99.90
12568;DHT22;6349;50.904;6.136;2022-11-14T04:29:44;4.80;99.90
12568;DHT22;6349;50.904;6.136;2022-11-14T04:31:45;4.80;99.90
12568;DHT22;6349;50.904;6.136;2022-11-14T04:33:45;4.80;99.90
12568;DHT22;6349;50.904;6.136;2022-11-14T04:35:47;4.80;99.90
12568;DHT22;6349;50.904;6.136;2022-11-14T04:37:47;4.80;99.90
12568;DHT22;6349;50.904;6.136;2022-11-14T04:39:48;4.80;99.90
12568;DHT22;6349;50.904;6.136;2022-11-14T04:41:48;4.80;99.90
12568;DHT22;6349;50.904;6.136;2022-11-14T04:43:49;4.90;99.90
12568;DHT22;6349;50.904;6.136;2022-11-14T04:45:50;4.80;99.90
12568;DHT22;6349;50.904;6.136;2022-11-14T04:47:50;4.80;99.90
12568;DHT22;6349;50.904;6.136;2022-11-14T04:49:51;4.90;99.90
12568;DHT22;6349;50.904;6.136;2022-11-14T04:51:51;4.90;99.90
12568;DHT22;6349;50.904;6.136;2022-11-14T04:53:52;4.90;99.90
12568;DHT22;6349;50.904;6.136;2022-11-14T04:55:52;4.80;99.90
12568;DHT22;6349;50.904;6.136;2022-11-14T04:57:54;4.80;99.90
12568;DHT22;6349;50.904;6.136;2022-11-14T04:59:55;4.80;99.90
12568;DHT22;6349;50.904;6.136;2022-11-14T05:01:56;4.70;99.90
12568;DHT22;6349;50.904;6.136;2022-11-14T05:03:56;4.60;99.90
12568;DHT22;6349;50.904;6.136;2022-11-14T05:05:59;4.50;99.90
12568;DHT22;6349;50.904;6.136;2022-11-14T05:08:00;4.50;99.90
12568;DHT22;6349;50.904;6.136;2022-11-14T05:10:01;4.50;99.90
12568;DHT22;6349;50.904;6.136;2022-11-14T05:12:02;4.50;99.90
12568;DHT22;6349;50.904;6.136;2022-11-14T05:14:03;4.50;99.90
12568;DHT22;6349;50.904;6.136;2022-11-14T05:16:04;4.40;99.90
12568;DHT22;6349;50.904;6.136;2022-11-14T05:18:05;4.40;99.90
12568;DHT22;6349;50.904;6.136;2022-11-14T05:20:05;4.30;99.90
12568;DHT22;6349;50.904;6.136;2022-11-14T05:22:06;4.30;99.90
12568;DHT22;6349;50.904;6.136;2022-11-14T05:24:07;4.30;99.90
12568;DHT22;6349;50.904;6.136;2022-11-14T05:26:10;4.20;99.90
12568;DHT22;6349;50.904;6.136;2022-11-14T05:28:11;4.20;99.90
12568;DHT22;6349;50.904;6.136;2022-11-14T05:30:12;4.20;99.90
12568;DHT22;6349;50.904;6.136;2022-11-14T05:32:13;4.30;99.90
12568;DHT22;6349;50.904;6.136;2022-11-14T05:34:13;4.30;99.90
12568;DHT22;6349;50.904;6.136;2022-11-14T05:36:15;4.20;99.90
12568;DHT22;6349;50.904;6.136;2022-11-14T05:38:16;4.20;99.90
12568;DHT22;6349;50.904;6.136;2022-11-14T05:40:17;4.10;99.90
12568;DHT22;6349;50.904;6.136;2022-11-14T05:42:18;4.20;99.90
12568;DHT22;6349;50.904;6.136;2022-11-14T05:44:19;4.10;99.90
12568;DHT22;6349;50.904;6.136;2022-11-14T05:46:19;4.10;99.90
12568;DHT22;6349;50.904;6.136;2022-11-14T05:48:20;4.10;99.90
12568;DHT22;6349;50.904;6.136;2022-11-14T05:50:20;4.10;99.90
12568;DHT22;6349;50.904;6.136;2022-11-14T05:52:21;4.10;99.90
12568;DHT22;6349;50.904;6.136;2022-11-14T05:54:21;4.10;99.90
12568;DHT22;6349;50.904;6.136;2022-11-14T05:56:22;4.10;99.90
12568;DHT22;6349;50.904;6.136;2022-11-14T05:58:23;4.00;99.90
12568;DHT22;6349;50.904;6.136;2022-11-14T06:00:24;4.00;99.90
12568;DHT22;6349;50.904;6.136;2022-11-14T06:02:25;4.00;99.90
12568;DHT22;6349;50.904;6.136;2022-11-14T06:04:26;4.00;99.90
12568;DHT22;6349;50.904;6.136;2022-11-14T06:06:26;4.00;99.90
12568;DHT22;6349;50.904;6.136;2022-11-14T06:08:28;3.90;99.90
12568;DHT22;6349;50.904;6.136;2022-11-14T06:10:29;3.90;99.90
12568;DHT22;6349;50.904;6.136;2022-11-14T06:12:31;3.90;99.90
12568;DHT22;6349;50.904;6.136;2022-11-14T06:14:32;3.90;99.90
12568;DHT22;6349;50.904;6.136;2022-11-14T06:16:32;3.80;99.90
12568;DHT22;6349;50.904;6.136;2022-11-14T06:18:34;3.80;99.90
12568;DHT22;6349;50.904;6.136;2022-11-14T06:20:35;3.80;99.90
12568;DHT22;6349;50.904;6.136;2022-11-14T06:22:36;3.80;99.90
12568;DHT22;6349;50.904;6.136;2022-11-14T06:24:36;3.70;99.90
12568;DHT22;6349;50.904;6.136;2022-11-14T06:26:37;3.70;99.90
12568;DHT22;6349;50.904;6.136;2022-11-14T06:28:37;3.70;99.90
12568;DHT22;6349;50.904;6.136;2022-11-14T06:30:38;3.60;99.90
12568;DHT22;6349;50.904;6.136;2022-11-14T06:32:40;3.60;99.90
12568;DHT22;6349;50.904;6.136;2022-11-14T06:34:41;3.60;99.90
12568;DHT22;6349;50.904;6.136;2022-11-14T06:36:41;3.60;99.90
12568;DHT22;6349;50.904;6.136;2022-11-14T06:38:42;3.60;99.90
12568;DHT22;6349;50.904;6.136;2022-11-14T06:40:43;3.60;99.90
12568;DHT22;6349;50.904;6.136;2022-11-14T06:42:43;3.60;99.90
12568;DHT22;6349;50.904;6.136;2022-11-14T06:44:44;3.60;99.90
12568;DHT22;6349;50.904;6.136;2022-11-14T06:46:45;3.80;99.90
12568;DHT22;6349;50.904;6.136;2022-11-14T06:48:46;3.90;99.90
12568;DHT22;6349;50.904;6.136;2022-11-14T06:50:55;4.00;99.90
12568;DHT22;6349;50.904;6.136;2022-11-14T06:52:57;4.10;99.90
12568;DHT22;6349;50.904;6.136;2022-11-14T06:54:58;4.00;99.90
12568;DHT22;6349;50.904;6.136;2022-11-14T06:56:58;4.00;99.90
12568;DHT22;6349;50.904;6.136;2022-11-14T06:58:59;3.90;99.90
12568;DHT22;6349;50.904;6.136;2022-11-14T07:01:10;3.80;99.90
12568;DHT22;6349;50.904;6.136;2022-11-14T07:03:11;3.70;99.90
12568;DHT22;6349;50.904;6.136;2022-11-14T07:05:11;3.70;99.90
12568;DHT22;6349;50.904;6.136;2022-11-14T07:07:12;3.70;99.90
12568;DHT22;6349;50.904;6.136;2022-11-14T07:09:13;3.70;99.90
12568;DHT22;6349;50.904;6.136;2022-11-14T07:11:16;3.70;99.90
12568;DHT22;6349;50.904;6.136;2022-11-14T07:13:24;3.70;99.90
12568;DHT22;6349;50.904;6.136;2022-11-14T07:15:25;3.70;99.90
12568;DHT22;6349;50.904;6.136;2022-11-14T07:17:25;3.70;99.90
12568;DHT22;6349;50.904;6.136;2022-11-14T07:19:26;3.80;99.90
12568;DHT22;6349;50.904;6.136;2022-11-14T07:21:29;3.80;99.90
12568;DHT22;6349;50.904;6.136;2022-11-14T07:23:31;3.80;99.90
12568;DHT22;6349;50.904;6.136;2022-11-14T07:25:32;3.90;99.90
12568;DHT22;6349;50.904;6.136;2022-11-14T07:27:33;3.90;99.90
12568;DHT22;6349;50.904;6.136;2022-11-14T07:29:33;3.90;99.90
12568;DHT22;6349;50.904;6.136;2022-11-14T07:31:34;3.90;99.90
12568;DHT22;6349;50.904;6.136;2022-11-14T07:33:34;3.90;99.90
12568;DHT22;6349;50.904;6.136;2022-11-14T07:35:37;3.90;99.90
12568;DHT22;6349;50.904;6.136;2022-11-14T07:37:38;3.90;99.90
12568;DHT22;6349;50.904;6.136;2022-11-14T07:39:39;3.90;99.90
12568;DHT22;6349;50.904;6.136;2022-11-14T07:41:39;4.00;99.90
12568;DHT22;6349;50.904;6.136;2022-11-14T07:43:41;4.00;99.90
12568;DHT22;6349;50.904;6.136;2022-11-14T07:45:41;4.00;99.90
12568;DHT22;6349;50.904;6.136;2022-11-14T07:47:42;4.10;99.90
12568;DHT22;6349;50.904;6.136;2022-11-14T07:49:42;4.10;99.90
12568;DHT22;6349;50.904;6.136;2022-11-14T07:51:43;4.20;99.90
12568;DHT22;6349;50.904;6.136;2022-11-14T07:53:44;4.20;99.90
12568;DHT22;6349;50.904;6.136;2022-11-14T07:55:44;4.20;99.90
12568;DHT22;6349;50.904;6.136;2022-11-14T07:57:45;4.30;99.90
12568;DHT22;6349;50.904;6.136;2022-11-14T07:59:46;4.30;99.90
12568;DHT22;6349;50.904;6.136;2022-11-14T08:01:46;4.40;99.90
12568;DHT22;6349;50.904;6.136;2022-11-14T08:03:47;4.40;99.90
12568;DHT22;6349;50.904;6.136;2022-11-14T08:05:48;4.40;99.90
12568;DHT22;6349;50.904;6.136;2022-11-14T08:07:50;4.50;99.90
12568;DHT22;6349;50.904;6.136;2022-11-14T08:09:51;4.50;99.90
12568;DHT22;6349;50.904;6.136;2022-11-14T08:11:51;4.60;99.90
12568;DHT22;6349;50.904;6.136;2022-11-14T08:13:52;4.70;99.90
12568;DHT22;6349;50.904;6.136;2022-11-14T08:15:53;4.80;99.90
12568;DHT22;6349;50.904;6.136;2022-11-14T08:17:58;4.90;99.90
12568;DHT22;6349;50.904;6.136;2022-11-14T08:19:58;4.90;99.90
12568;DHT22;6349;50.904;6.136;2022-11-14T08:21:59;5.00;99.90
12568;DHT22;6349;50.904;6.136;2022-11-14T08:24:00;5.00;99.90
12568;DHT22;6349;50.904;6.136;2022-11-14T08:26:00;5.20;99.90
12568;DHT22;6349;50.904;6.136;2022-11-14T08:28:01;5.20;99.90
12568;DHT22;6349;50.904;6.136;2022-11-14T08:30:02;5.30;99.90
12568;DHT22;6349;50.904;6.136;2022-11-14T08:32:02;5.30;99.90
12568;DHT22;6349;50.904;6.136;2022-11-14T08:34:03;5.30;99.90
12568;DHT22;6349;50.904;6.136;2022-11-14T08:36:05;5.30;99.90
12568;DHT22;6349;50.904;6.136;2022-11-14T08:38:06;5.40;99.90
12568;DHT22;6349;50.904;6.136;2022-11-14T08:40:07;5.40;99.90
12568;DHT22;6349;50.904;6.136;2022-11-14T08:42:08;5.40;99.90
12568;DHT22;6349;50.904;6.136;2022-11-14T08:44:08;5.40;99.90
12568;DHT22;6349;50.904;6.136;2022-11-14T08:46:09;5.40;99.90
12568;DHT22;6349;50.904;6.136;2022-11-14T08:48:09;5.50;99.90
12568;DHT22;6349;50.904;6.136;2022-11-14T08:50:10;5.50;99.90
12568;DHT22;6349;50.904;6.136;2022-11-14T08:52:11;5.50;99.90
12568;DHT22;6349;50.904;6.136;2022-11-14T08:54:11;5.50;99.90
12568;DHT22;6349;50.904;6.136;2022-11-14T08:56:12;5.60;99.90
12568;DHT22;6349;50.904;6.136;2022-11-14T08:58:13;5.60;99.90
12568;DHT22;6349;50.904;6.136;2022-11-14T09:00:15;5.60;99.90
12568;DHT22;6349;50.904;6.136;2022-11-14T09:02:15;5.70;99.90
12568;DHT22;6349;50.904;6.136;2022-11-14T09:04:16;5.70;99.90
12568;DHT22;6349;50.904;6.136;2022-11-14T09:06:16;5.80;99.90
12568;DHT22;6349;50.904;6.136;2022-11-14T09:08:17;5.80;99.90
12568;DHT22;6349;50.904;6.136;2022-11-14T09:10:18;5.90;99.90
12568;DHT22;6349;50.904;6.136;2022-11-14T09:12:18;5.90;99.90
12568;DHT22;6349;50.904;6.136;2022-11-14T09:14:19;5.90;99.90
12568;DHT22;6349;50.904;6.136;2022-11-14T09:16:20;6.00;99.90
12568;DHT22;6349;50.904;6.136;2022-11-14T09:18:21;6.10;99.90
12568;DHT22;6349;50.904;6.136;2022-11-14T09:20:23;6.10;99.90
12568;DHT22;6349;50.904;6.136;2022-11-14T09:22:24;6.10;99.90
12568;DHT22;6349;50.904;6.136;2022-11-14T09:24:24;6.20;99.90
12568;DHT22;6349;50.904;6.136;2022-11-14T09:26:25;6.30;99.90
12568;DHT22;6349;50.904;6.136;2022-11-14T09:28:26;6.30;99.90
12568;DHT22;6349;50.904;6.136;2022-11-14T09:30:26;6.40;99.90
12568;DHT22;6349;50.904;6.136;2022-11-14T09:32:27;6.40;99.90
12568;DHT22;6349;50.904;6.136;2022-11-14T09:34:27;6.50;99.90
12568;DHT22;6349;50.904;6.136;2022-11-14T09:36:28;6.60;99.90
12568;DHT22;6349;50.904;6.136;2022-11-14T09:38:29;6.60;99.90
12568;DHT22;6349;50.904;6.136;2022-11-14T09:40:51;6.60;99.90
12568;DHT22;6349;50.904;6.136;2022-11-14T09:45:35;6.70;99.90
12568;DHT22;6349;50.904;6.136;2022-11-14T09:47:43;6.80;99.90
12568;DHT22;6349;50.904;6.136;2022-11-14T09:49:45;6.80;99.90
12568;DHT22;6349;50.904;6.136;2022-11-14T09:51:50;6.90;99.90
12568;DHT22;6349;50.904;6.136;2022-11-14T09:54:06;6.90;99.90
12568;DHT22;6349;50.904;6.136;2022-11-14T09:56:12;7.00;99.90
12568;DHT22;6349;50.904;6.136;2022-11-14T09:58:18;7.00;99.90
12568;DHT22;6349;50.904;6.136;2022-11-14T10:00:22;7.10;99.90
12568;DHT22;6349;50.904;6.136;2022-11-14T10:02:36;7.20;99.90
12568;DHT22;6349;50.904;6.136;2022-11-14T10:04:49;7.20;99.90
12568;DHT22;6349;50.904;6.136;2022-11-14T10:12:16;7.30;99.90
12568;DHT22;6349;50.904;6.136;2022-11-14T10:14:42;7.40;99.90
12568;DHT22;6349;50.904;6.136;2022-11-14T10:17:11;7.40;99.90
12568;DHT22;6349;50.904;6.136;2022-11-14T10:25:00;7.50;99.90
12568;DHT22;6349;50.904;6.136;2022-11-14T10:27:04;7.60;99.90
12568;DHT22;6349;50.904;6.136;2022-11-14T10:36:43;7.80;99.90
12568;DHT22;6349;50.904;6.136;2022-11-14T10:38:51;7.90;99.90
12568;DHT22;6349;50.904;6.136;2022-11-14T10:40:57;8.00;99.90
12568;DHT22;6349;50.904;6.136;2022-11-14T10:43:05;8.10;99.90
12568;DHT22;6349;50.904;6.136;2022-11-14T10:45:30;8.20;99.90
12568;DHT22;6349;50.904;6.136;2022-11-14T10:47:40;8.20;99.90
12568;DHT22;6349;50.904;6.136;2022-11-14T10:49:41;8.30;99.90
12568;DHT22;6349;50.904;6.136;2022-11-14T10:51:50;8.40;99.90
12568;DHT22;6349;50.904;6.136;2022-11-14T10:53:57;8.40;99.90
12568;DHT22;6349;50.904;6.136;2022-11-14T10:55:59;8.50;99.90
12568;DHT22;6349;50.904;6.136;2022-11-14T10:58:00;8.50;99.90
12568;DHT22;6349;50.904;6.136;2022-11-14T11:00:04;8.60;99.90
12568;DHT22;6349;50.904;6.136;2022-11-14T11:02:05;8.70;99.90
12568;DHT22;6349;50.904;6.136;2022-11-14T11:06:29;8.80;99.90
12568;DHT22;6349;50.904;6.136;2022-11-14T11:08:30;8.80;99.90
12568;DHT22;6349;50.904;6.136;2022-11-14T11:10:57;8.80;99.90
12568;DHT22;6349;50.904;6.136;2022-11-14T11:13:36;8.80;99.90
12568;DHT22;6349;50.904;6.136;2022-11-14T11:15:40;8.90;99.90
12568;DHT22;6349;50.904;6.136;2022-11-14T11:17:58;8.90;99.90
12568;DHT22;6349;50.904;6.136;2022-11-14T11:20:22;9.00;99.90
12568;DHT22;6349;50.904;6.136;2022-11-14T11:22:27;9.00;99.90
12568;DHT22;6349;50.904;6.136;2022-11-14T11:24:32;9.00;99.90
12568;DHT22;6349;50.904;6.136;2022-11-14T11:26:32;9.10;99.90
12568;DHT22;6349;50.904;6.136;2022-11-14T11:28:34;9.10;99.90
12568;DHT22;6349;50.904;6.136;2022-11-14T11:30:36;9.10;99.90
12568;DHT22;6349;50.904;6.136;2022-11-14T11:32:36;9.20;99.90
12568;DHT22;6349;50.904;6.136;2022-11-14T11:34:37;9.10;99.90
12568;DHT22;6349;50.904;6.136;2022-11-14T11:36:42;9.10;99.90
12568;DHT22;6349;50.904;6.136;2022-11-14T11:38:46;9.10;99.90
12568;DHT22;6349;50.904;6.136;2022-11-14T11:40:50;9.10;99.90
12568;DHT22;6349;50.904;6.136;2022-11-14T11:45:13;9.10;99.90
12568;DHT22;6349;50.904;6.136;2022-11-14T11:47:17;9.10;99.90
12568;DHT22;6349;50.904;6.136;2022-11-14T11:49:31;9.20;99.90
12568;DHT22;6349;50.904;6.136;2022-11-14T11:51:39;9.20;99.90
12568;DHT22;6349;50.904;6.136;2022-11-14T11:53:43;9.30;99.90
12568;DHT22;6349;50.904;6.136;2022-11-14T11:55:48;9.30;99.90
12568;DHT22;6349;50.904;6.136;2022-11-14T11:58:12;9.40;99.90
12568;DHT22;6349;50.904;6.136;2022-11-14T12:00:18;9.40;99.90
12568;DHT22;6349;50.904;6.136;2022-11-14T12:02:27;9.40;99.90
12568;DHT22;6349;50.904;6.136;2022-11-14T12:04:29;9.40;99.90
12568;DHT22;6349;50.904;6.136;2022-11-14T12:06:38;9.40;99.90
12568;DHT22;6349;50.904;6.136;2022-11-14T12:09:32;9.40;99.90
12568;DHT22;6349;50.904;6.136;2022-11-14T12:11:24;9.50;99.90
12568;DHT22;6349;50.904;6.136;2022-11-14T12:15:56;9.60;99.90
12568;DHT22;6349;50.904;6.136;2022-11-14T12:18:14;9.60;99.90
12568;DHT22;6349;50.904;6.136;2022-11-14T12:20:35;9.60;99.90
12568;DHT22;6349;50.904;6.136;2022-11-14T12:23:02;9.60;99.90
12568;DHT22;6349;50.904;6.136;2022-11-14T12:30:11;9.70;99.90
12568;DHT22;6349;50.904;6.136;2022-11-14T12:32:18;9.70;99.90
12568;DHT22;6349;50.904;6.136;2022-11-14T12:34:27;9.60;99.90
12568;DHT22;6349;50.904;6.136;2022-11-14T12:36:32;9.70;99.90
12568;DHT22;6349;50.904;6.136;2022-11-14T12:38:42;9.60;99.90
12568;DHT22;6349;50.904;6.136;2022-11-14T12:40:54;9.60;99.90
12568;DHT22;6349;50.904;6.136;2022-11-14T12:42:55;9.50;99.90
12568;DHT22;6349;50.904;6.136;2022-11-14T12:44:57;9.50;99.90
12568;DHT22;6349;50.904;6.136;2022-11-14T12:49:36;9.40;99.90
12568;DHT22;6349;50.904;6.136;2022-11-14T12:53:56;9.40;99.90
12568;DHT22;6349;50.904;6.136;2022-11-14T12:58:35;9.30;99.90
12568;DHT22;6349;50.904;6.136;2022-11-14T13:06:03;9.30;99.90
12568;DHT22;6349;50.904;6.136;2022-11-14T13:08:32;9.30;99.90
12568;DHT22;6349;50.904;6.136;2022-11-14T13:10:38;9.20;99.90
12568;DHT22;6349;50.904;6.136;2022-11-14T13:12:41;9.30;99.90
12568;DHT22;6349;50.904;6.136;2022-11-14T13:15:24;9.30;99.90
12568;DHT22;6349;50.904;6.136;2022-11-14T13:17:44;9.30;99.90
12568;DHT22;6349;50.904;6.136;2022-11-14T13:20:25;9.30;99.90
12568;DHT22;6349;50.904;6.136;2022-11-14T13:22:46;9.30;99.90
12568;DHT22;6349;50.904;6.136;2022-11-14T13:27:31;9.30;99.90
12568;DHT22;6349;50.904;6.136;2022-11-14T13:31:49;9.40;99.90
12568;DHT22;6349;50.904;6.136;2022-11-14T13:33:54;9.40;99.90
12568;DHT22;6349;50.904;6.136;2022-11-14T13:36:02;9.40;99.90
12568;DHT22;6349;50.904;6.136;2022-11-14T13:38:30;9.40;99.90
12568;DHT22;6349;50.904;6.136;2022-11-14T13:40:58;9.40;99.90
12568;DHT22;6349;50.904;6.136;2022-11-14T13:43:28;9.30;99.90
12568;DHT22;6349;50.904;6.136;2022-11-14T13:46:00;9.30;99.90
12568;DHT22;6349;50.904;6.136;2022-11-14T13:50:25;9.30;99.90
12568;DHT22;6349;50.904;6.136;2022-11-14T13:52:31;9.20;99.90
12568;DHT22;6349;50.904;6.136;2022-11-14T13:54:32;9.20;99.90
12568;DHT22;6349;50.904;6.136;2022-11-14T13:56:37;9.10;99.90
12568;DHT22;6349;50.904;6.136;2022-11-14T13:59:11;9.20;99.90
12568;DHT22;6349;50.904;6.136;2022-11-14T14:08:49;9.00;99.90
12568;DHT22;6349;50.904;6.136;2022-11-14T14:13:46;9.00;99.90
12568;DHT22;6349;50.904;6.136;2022-11-14T14:16:03;9.00;99.90
12568;DHT22;6349;50.904;6.136;2022-11-14T14:18:30;9.00;99.90
12568;DHT22;6349;50.904;6.136;2022-11-14T14:21:01;9.00;99.90
12568;DHT22;6349;50.904;6.136;2022-11-14T14:31:11;9.00;99.90
12568;DHT22;6349;50.904;6.136;2022-11-14T14:33:14;9.00;99.90
12568;DHT22;6349;50.904;6.136;2022-11-14T14:37:32;9.00;99.90
12568;DHT22;6349;50.904;6.136;2022-11-14T14:39:33;8.90;99.90
12568;DHT22;6349;50.904;6.136;2022-11-14T14:41:33;8.90;99.90
12568;DHT22;6349;50.904;6.136;2022-11-14T14:43:34;9.00;99.90